Ayrshire, Indiana
Current Conditions -  °F | °C
As of 1:15 AM on Sunday 23 Nov 2014 (Local Time) from KHNB Reporting Station
Broken Clouds Broken Clouds  
Wind Chill: 12°   Ceiling: 3600
Heat Index: 12°   Visibility: 10mi
Dew Point:   Wind: 8mph
Humidity: 58%   Direction: 170°S
Pressure: 30"   Gusts: NA
Location:  38.3488°N, 87.2217°W
Report Text: KHNB 230715Z AUTO 17007KT 10SM BKN036 12/04 A3000 RMK AO1
Loading
Personal Weather Stations






























Interactive Weather Map New forecast layout! Learn more

10-Day Weather Forecast

Advertisements
Track Severe Weather on mobile